createdAt,value
2022-10-13T00:00:52.231Z,6.72
2022-10-13T00:03:19.662Z,6.56
2022-10-13T00:05:49.029Z,6.69
2022-10-13T00:08:20.099Z,6.63
2022-10-13T00:10:49.938Z,6.59
2022-10-13T00:13:20.176Z,6.51
2022-10-13T00:15:48.575Z,6.46
2022-10-13T00:18:16.790Z,6.65
2022-10-13T00:20:46.914Z,6.62
2022-10-13T00:23:14.068Z,6.58
2022-10-13T00:25:46.220Z,6.49
2022-10-13T00:28:14.999Z,6.27
2022-10-13T00:30:42.091Z,6.30
2022-10-13T00:33:10.514Z,6.24
2022-10-13T00:35:46.652Z,6.22
2022-10-13T00:38:17.475Z,6.23
2022-10-13T00:40:53.067Z,6.13
2022-10-13T00:43:47.678Z,6.22
2022-10-13T00:46:15.556Z,6.13
2022-10-13T00:48:45.143Z,5.94
2022-10-13T00:51:15.012Z,5.97
2022-10-13T00:53:42.986Z,5.74
2022-10-13T00:56:14.147Z,5.87
2022-10-13T00:58:44.339Z,5.81
2022-10-13T01:01:11.605Z,5.62
2022-10-13T01:03:39.305Z,5.72
2022-10-13T01:06:08.248Z,5.62
2022-10-13T01:08:35.248Z,5.50
2022-10-13T01:11:23.315Z,5.42
2022-10-13T01:14:19.980Z,5.47
2022-10-13T01:17:05.439Z,5.41
2022-10-13T01:20:00.895Z,5.36
2022-10-13T01:23:05.528Z,5.29
2022-10-13T01:25:57.900Z,5.23
2022-10-13T01:28:47.516Z,5.18
2022-10-13T01:31:38.507Z,5.13
2022-10-13T01:34:08.478Z,5.09
2022-10-13T01:36:45.765Z,5.08
2022-10-13T01:39:29.966Z,4.87
2022-10-13T01:42:11.320Z,5.02
2022-10-13T01:44:43.684Z,5.02
2022-10-13T01:47:13.277Z,5.06
2022-10-13T01:49:41.599Z,5.02
2022-10-13T01:52:15.019Z,4.95
2022-10-13T01:54:42.186Z,4.69
2022-10-13T01:57:33.996Z,4.82
2022-10-13T02:00:08.926Z,4.81
2022-10-13T02:02:55.435Z,4.75
2022-10-13T02:05:38.387Z,4.69
2022-10-13T02:08:26.886Z,4.63
2022-10-13T02:11:15.762Z,4.49
2022-10-13T02:14:02.192Z,4.47
2022-10-13T02:16:51.028Z,4.34
2022-10-13T02:19:19.508Z,4.31
2022-10-13T02:21:48.208Z,4.50
2022-10-13T02:24:15.890Z,4.50
2022-10-13T02:26:43.110Z,4.20
2022-10-13T02:29:14.317Z,4.60
2022-10-13T02:31:43.237Z,4.60
2022-10-13T02:34:11.833Z,4.58
2022-10-13T02:36:39.808Z,4.34
2022-10-13T02:39:09.195Z,4.51
2022-10-13T02:41:36.593Z,4.48
2022-10-13T02:44:05.412Z,4.43
2022-10-13T02:46:42.125Z,4.11
2022-10-13T02:49:10.122Z,4.24
2022-10-13T02:51:40.163Z,4.22
2022-10-13T02:54:08.037Z,4.17
2022-10-13T02:56:35.502Z,4.15
2022-10-13T02:59:02.873Z,4.10
2022-10-13T03:01:29.952Z,4.06
2022-10-13T03:03:57.059Z,3.99
2022-10-13T03:06:24.156Z,3.91
2022-10-13T03:08:51.373Z,3.88
2022-10-13T03:11:18.380Z,4.05
2022-10-13T03:13:45.566Z,3.92
2022-10-13T03:16:12.663Z,3.86
2022-10-13T03:18:39.565Z,4.03
2022-10-13T03:21:07.541Z,3.96
2022-10-13T03:23:36.296Z,3.97
2022-10-13T03:26:04.588Z,3.78
2022-10-13T03:28:31.921Z,3.99
2022-10-13T03:31:09.893Z,3.95
2022-10-13T03:33:37.506Z,4.00
2022-10-13T03:36:06.231Z,4.00
2022-10-13T03:38:34.944Z,3.98
2022-10-13T03:41:10.671Z,4.00
2022-10-13T03:43:38.501Z,3.90
2022-10-13T03:46:07.807Z,4.03
2022-10-13T03:48:36.900Z,4.03
2022-10-13T03:51:08.883Z,3.95
2022-10-13T03:53:36.303Z,3.83
2022-10-13T03:56:04.470Z,4.10
2022-10-13T03:58:35.379Z,3.96
2022-10-13T04:01:05.579Z,4.11
2022-10-13T04:03:35.665Z,4.11
2022-10-13T04:06:04.532Z,3.98
2022-10-13T04:08:33.421Z,3.95
2022-10-13T04:11:04.439Z,3.90
2022-10-13T04:13:32.047Z,3.76
2022-10-13T04:16:05.225Z,4.12
2022-10-13T04:18:33.179Z,4.34
2022-10-13T04:21:00.361Z,3.89
2022-10-13T04:23:27.784Z,4.39
2022-10-13T04:25:56.682Z,4.03
2022-10-13T04:28:24.922Z,4.01
2022-10-13T04:30:52.239Z,4.41
2022-10-13T04:33:19.538Z,4.79
2022-10-13T04:35:46.613Z,4.86
2022-10-13T04:38:13.618Z,4.83
2022-10-13T04:40:40.837Z,5.06
2022-10-13T04:43:08.641Z,5.06
2022-10-13T04:45:36.576Z,5.17
2022-10-13T04:48:04.064Z,5.16
2022-10-13T04:50:31.497Z,5.33
2022-10-13T04:53:02.238Z,5.27
2022-10-13T04:55:30.036Z,5.46
2022-10-13T04:57:58.611Z,5.43
2022-10-13T05:00:26.501Z,5.60
2022-10-13T05:02:53.735Z,5.62
2022-10-13T05:05:20.752Z,5.67
2022-10-13T05:07:47.865Z,5.53
2022-10-13T05:10:15.043Z,5.68
2022-10-13T05:12:43.548Z,5.55
2022-10-13T05:15:11.120Z,5.44
2022-10-13T05:17:40.290Z,5.69
2022-10-13T05:20:09.337Z,5.48
2022-10-13T05:22:36.574Z,5.84
2022-10-13T05:25:04.316Z,6.05
2022-10-13T05:27:31.979Z,5.88
2022-10-13T05:30:02.425Z,5.94
2022-10-13T05:32:31.466Z,6.17
2022-10-13T05:34:59.418Z,6.14
2022-10-13T05:37:26.674Z,6.14
2022-10-13T05:39:53.980Z,6.34
2022-10-13T05:42:21.645Z,6.45
2022-10-13T05:44:49.452Z,6.65
2022-10-13T05:47:16.969Z,6.51
2022-10-13T05:49:45.479Z,6.72
2022-10-13T05:52:13.106Z,6.65
2022-10-13T05:54:50.020Z,6.93
2022-10-13T05:57:24.392Z,7.07
2022-10-13T05:59:57.702Z,6.98
2022-10-13T06:02:28.446Z,7.11
2022-10-13T06:04:57.925Z,6.91
2022-10-13T06:07:25.589Z,7.18
2022-10-13T06:09:54.800Z,7.14
2022-10-13T06:12:25.019Z,7.17
2022-10-13T06:14:59.017Z,6.77
2022-10-13T06:17:26.157Z,6.74
2022-10-13T06:19:54.338Z,6.95
2022-10-13T06:22:22.576Z,6.36
2022-10-13T06:24:50.459Z,6.84
2022-10-13T06:27:18.068Z,7.08
2022-10-13T06:29:47.755Z,7.12
2022-10-13T06:32:14.817Z,7.21
2022-10-13T06:34:42.093Z,7.23
2022-10-13T06:37:09.229Z,7.24
2022-10-13T06:39:36.278Z,6.96
2022-10-13T06:42:05.125Z,6.91
2022-10-13T06:44:37.947Z,7.16
2022-10-13T06:47:05.764Z,7.28
2022-10-13T06:49:33.512Z,7.09
2022-10-13T06:52:00.888Z,7.54
2022-10-13T06:54:28.229Z,7.25
2022-10-13T06:56:55.561Z,7.43
2022-10-13T06:59:22.759Z,7.37
2022-10-13T07:01:53.773Z,7.23
2022-10-13T07:04:23.411Z,7.29
2022-10-13T07:06:52.058Z,7.82
2022-10-13T07:09:20.654Z,7.95
2022-10-13T07:11:48.037Z,7.72
2022-10-13T07:14:15.067Z,8.11
2022-10-13T07:16:42.264Z,8.08
2022-10-13T07:19:11.705Z,8.30
2022-10-13T07:21:39.146Z,8.28
2022-10-13T07:24:11.981Z,8.28
2022-10-13T07:26:39.384Z,8.26
2022-10-13T07:29:12.751Z,8.03
2022-10-13T07:31:40.881Z,8.18
2022-10-13T07:34:09.277Z,8.12
2022-10-13T07:36:39.159Z,7.53
2022-10-13T07:39:06.830Z,8.05
2022-10-13T07:41:37.283Z,8.02
2022-10-13T07:44:08.337Z,7.20
2022-10-13T07:46:37.155Z,7.54
2022-10-13T07:49:15.216Z,7.17
2022-10-13T07:51:45.436Z,7.31
2022-10-13T07:54:16.889Z,7.04
2022-10-13T07:56:47.006Z,7.71
2022-10-13T07:59:14.846Z,7.98
2022-10-13T08:01:43.920Z,8.47
2022-10-13T08:04:11.492Z,8.45
2022-10-13T08:09:11.628Z,7.98
2022-10-13T08:11:39.217Z,7.49
2022-10-13T08:14:14.022Z,7.04
2022-10-13T08:16:50.035Z,7.28
2022-10-13T08:19:22.457Z,8.38
2022-10-13T08:21:59.716Z,8.57
2022-10-13T08:24:27.891Z,8.75
2022-10-13T08:26:56.693Z,9.47
2022-10-13T08:29:28.959Z,8.88
2022-10-13T08:32:00.710Z,9.33
2022-10-13T08:34:30.669Z,9.73
2022-10-13T08:37:02.968Z,10.01
2022-10-13T08:39:42.962Z,9.74
2022-10-13T08:42:23.391Z,10.34
2022-10-13T08:45:22.149Z,10.33
2022-10-13T08:47:49.916Z,10.88
2022-10-13T08:50:27.333Z,9.85
2022-10-13T08:53:00.695Z,9.94
2022-10-13T08:55:42.262Z,10.25
2022-10-13T08:58:37.469Z,9.78
2022-10-13T09:01:09.029Z,10.36
2022-10-13T09:03:54.351Z,10.04
2022-10-13T09:06:31.954Z,9.32
2022-10-13T09:09:17.259Z,10.02
2022-10-13T09:11:52.171Z,10.02
2022-10-13T09:14:32.767Z,10.30
2022-10-13T09:17:21.162Z,10.31
2022-10-13T09:23:26.261Z,11.27
2022-10-13T09:25:59.337Z,10.42
2022-10-13T09:28:30.558Z,10.67
2022-10-13T09:31:23.985Z,10.58
2022-10-13T09:34:07.795Z,10.06
2022-10-13T09:36:40.076Z,9.03
2022-10-13T09:39:17.402Z,9.34
2022-10-13T09:41:49.570Z,9.00
2022-10-13T09:44:30.681Z,8.93
2022-10-13T09:47:01.759Z,9.06
2022-10-13T09:49:42.132Z,9.36
2022-10-13T09:52:13.915Z,9.38
2022-10-13T09:54:54.540Z,9.17
2022-10-13T09:57:44.341Z,9.23
2022-10-13T10:00:24.652Z,9.64
2022-10-13T10:03:13.252Z,9.82
2022-10-13T10:06:05.107Z,9.84
2022-10-13T10:09:05.475Z,10.59
2022-10-13T10:11:53.327Z,9.48
2022-10-13T10:14:31.088Z,10.08
2022-10-13T10:17:23.125Z,9.92
2022-10-13T10:20:25.272Z,9.75
2022-10-13T10:23:20.336Z,9.45
2022-10-13T10:25:59.807Z,9.29
2022-10-13T10:29:11.296Z,9.71
2022-10-13T10:32:04.456Z,9.01
2022-10-13T10:34:31.605Z,9.70
2022-10-13T10:37:31.245Z,9.39
2022-10-13T10:40:26.039Z,10.32
2022-10-13T10:42:56.952Z,10.35
2022-10-13T10:45:34.374Z,10.25
2022-10-13T10:48:08.045Z,10.67
2022-10-13T10:50:35.967Z,10.80
2022-10-13T10:53:16.796Z,11.22
2022-10-13T10:55:59.913Z,11.80
2022-10-13T10:58:38.849Z,11.31
2022-10-13T11:01:39.195Z,11.38
2022-10-13T11:04:44.651Z,12.03
2022-10-13T11:07:34.724Z,12.71
2022-10-13T11:10:17.879Z,13.18
2022-10-13T11:12:51.101Z,13.69
2022-10-13T11:15:41.512Z,14.22
2022-10-13T11:18:52.576Z,14.51
2022-10-13T11:21:27.984Z,14.32
2022-10-13T11:24:01.070Z,14.42
2022-10-13T11:26:41.942Z,14.96
2022-10-13T11:29:16.688Z,15.12
2022-10-13T11:31:51.770Z,14.39
2022-10-13T11:34:37.119Z,13.63
2022-10-13T11:37:17.620Z,13.29
2022-10-13T11:40:08.442Z,13.58
2022-10-13T11:42:58.281Z,13.77
2022-10-13T11:45:26.604Z,14.14
2022-10-13T11:48:26.821Z,14.58
2022-10-13T11:51:16.831Z,15.16
2022-10-13T11:54:09.122Z,15.12
2022-10-13T11:56:51.279Z,15.13
2022-10-13T11:59:31.449Z,15.09
2022-10-13T12:02:12.608Z,15.05
2022-10-13T12:04:46.493Z,14.91
2022-10-13T12:07:16.299Z,14.50
2022-10-13T12:09:56.048Z,14.86
2022-10-13T12:12:30.624Z,14.93
2022-10-13T12:15:04.165Z,14.02
2022-10-13T12:17:42.079Z,14.22
2022-10-13T12:20:39.037Z,15.09
2022-10-13T12:23:17.959Z,14.79
2022-10-13T12:25:49.422Z,15.17
2022-10-13T12:28:22.367Z,15.15
2022-10-13T12:31:04.062Z,14.53
2022-10-13T12:33:37.467Z,15.37
2022-10-13T12:36:30.482Z,15.85
2022-10-13T12:39:24.051Z,15.56
2022-10-13T12:41:54.902Z,14.79
2022-10-13T12:44:29.379Z,14.93
2022-10-13T12:47:24.869Z,14.99
2022-10-13T12:49:52.164Z,14.65
2022-10-13T12:52:25.084Z,14.10
2022-10-13T12:54:58.357Z,14.14
2022-10-13T12:57:37.959Z,13.55
2022-10-13T13:00:22.888Z,14.06
2022-10-13T13:03:06.398Z,13.93
2022-10-13T13:05:51.562Z,14.04
2022-10-13T13:08:30.138Z,14.04
2022-10-13T13:11:02.117Z,13.54
2022-10-13T13:13:30.431Z,13.63
2022-10-13T13:16:20.191Z,13.56
2022-10-13T13:18:49.112Z,13.29
2022-10-13T13:21:19.998Z,13.42
2022-10-13T13:23:53.037Z,13.46
2022-10-13T13:26:23.824Z,13.68
2022-10-13T13:28:56.159Z,13.33
2022-10-13T13:31:26.105Z,12.97
2022-10-13T13:33:53.546Z,12.70
2022-10-13T13:36:23.279Z,12.17
2022-10-13T13:38:54.114Z,12.22
2022-10-13T13:41:21.562Z,11.81
2022-10-13T13:43:49.787Z,11.67
2022-10-13T13:46:23.083Z,11.38
2022-10-13T13:48:51.058Z,11.42
2022-10-13T13:51:18.772Z,11.52
2022-10-13T13:53:46.524Z,11.59
2022-10-13T13:56:16.267Z,11.60
2022-10-13T13:58:44.381Z,11.64
2022-10-13T14:01:13.240Z,11.69
2022-10-13T14:03:41.985Z,11.52
2022-10-13T14:06:19.077Z,11.14
2022-10-13T14:08:46.781Z,10.72
2022-10-13T14:11:13.787Z,10.57
2022-10-13T14:13:40.854Z,10.07
2022-10-13T14:16:17.212Z,10.07
2022-10-13T14:18:44.395Z,9.64
2022-10-13T14:21:12.318Z,9.62
2022-10-13T14:23:40.505Z,9.29
2022-10-13T14:26:09.795Z,9.38
2022-10-13T14:28:36.903Z,9.09
2022-10-13T14:31:07.735Z,9.38
2022-10-13T14:33:36.402Z,9.33
2022-10-13T14:36:06.748Z,9.10
2022-10-13T14:38:34.893Z,9.12
2022-10-13T14:41:03.289Z,9.25
2022-10-13T14:43:31.401Z,9.16
2022-10-13T14:46:03.865Z,9.08
2022-10-13T14:48:37.027Z,8.97
2022-10-13T14:51:08.847Z,8.93
2022-10-13T14:53:38.383Z,8.85
2022-10-13T14:56:20.432Z,8.73
2022-10-13T14:58:56.327Z,8.43
2022-10-13T15:01:27.365Z,8.45
2022-10-13T15:03:55.031Z,8.35
2022-10-13T15:06:24.679Z,7.99
2022-10-13T15:08:53.000Z,7.69
2022-10-13T15:11:28.172Z,7.43
2022-10-13T15:13:57.170Z,7.72
2022-10-13T15:16:29.189Z,7.53
2022-10-13T15:18:57.756Z,7.47
2022-10-13T15:21:36.628Z,7.20
2022-10-13T15:24:04.603Z,7.52
2022-10-13T15:26:34.570Z,6.93
2022-10-13T15:29:05.336Z,7.50
2022-10-13T15:31:36.194Z,7.32
2022-10-13T15:34:07.274Z,6.60
2022-10-13T15:36:34.731Z,6.36
2022-10-13T15:39:02.863Z,7.42
2022-10-13T15:41:29.969Z,6.90
2022-10-13T15:43:57.162Z,7.29
2022-10-13T15:46:26.243Z,7.24
2022-10-13T15:48:55.274Z,6.98
2022-10-13T15:51:27.119Z,7.22
2022-10-13T15:54:10.385Z,7.10
2022-10-13T15:56:45.456Z,6.21
2022-10-13T15:59:21.302Z,7.22
2022-10-13T16:01:52.152Z,6.24
2022-10-13T16:04:31.288Z,6.96
2022-10-13T16:07:04.452Z,6.31
2022-10-13T16:09:50.067Z,6.51
2022-10-13T16:12:27.920Z,5.84
2022-10-13T16:15:05.761Z,6.00
2022-10-13T16:17:39.812Z,6.61
2022-10-13T16:20:08.351Z,6.53
2022-10-13T16:22:48.955Z,5.96
2022-10-13T16:25:23.007Z,5.29
2022-10-13T16:27:50.611Z,5.42
2022-10-13T16:30:30.579Z,5.91
2022-10-13T16:32:58.311Z,5.96
2022-10-13T16:35:29.728Z,5.85
2022-10-13T16:38:13.683Z,4.85
2022-10-13T16:40:46.042Z,5.33
2022-10-13T16:43:17.183Z,5.75
2022-10-13T16:46:02.154Z,5.13
2022-10-13T16:48:33.046Z,5.36
2022-10-13T16:51:05.658Z,5.03
2022-10-13T16:53:46.313Z,4.42
2022-10-13T16:56:35.977Z,4.42
2022-10-13T16:59:13.867Z,4.42
2022-10-13T17:01:58.021Z,4.29
2022-10-13T17:04:50.516Z,4.61
2022-10-13T17:07:37.919Z,4.87
2022-10-13T17:10:25.475Z,4.40
2022-10-13T17:13:17.214Z,4.81
2022-10-13T17:16:09.591Z,4.16
2022-10-13T17:18:48.831Z,4.83
2022-10-13T17:21:22.383Z,4.66
2022-10-13T17:24:15.925Z,4.88
2022-10-13T17:26:50.898Z,4.14
2022-10-13T17:29:18.146Z,5.04
2022-10-13T17:31:45.764Z,5.13
2022-10-13T17:34:13.079Z,5.12
2022-10-13T17:36:42.035Z,5.00
2022-10-13T17:39:11.718Z,4.95
2022-10-13T17:41:50.557Z,5.19
2022-10-13T17:44:21.300Z,5.07
2022-10-13T17:46:51.923Z,5.29
2022-10-13T17:49:20.201Z,5.52
2022-10-13T17:51:51.991Z,5.55
2022-10-13T17:54:20.210Z,5.60
2022-10-13T17:56:50.718Z,5.43
2022-10-13T17:59:22.039Z,5.59
2022-10-13T18:01:52.556Z,5.51
2022-10-13T18:04:22.503Z,5.56
2022-10-13T18:06:55.928Z,5.35
2022-10-13T18:09:25.170Z,5.46
2022-10-13T18:11:55.793Z,5.16
2022-10-13T18:14:27.807Z,4.74
2022-10-13T18:17:35.051Z,5.31
2022-10-13T18:20:07.564Z,5.39
2022-10-13T18:22:38.509Z,5.26
2022-10-13T18:25:06.722Z,5.40
2022-10-13T18:27:34.400Z,5.41
2022-10-13T18:30:02.975Z,5.29
2022-10-13T18:32:34.096Z,5.06
2022-10-13T18:35:02.892Z,4.88
2022-10-13T18:37:30.784Z,5.08
2022-10-13T18:40:02.719Z,5.10
2022-10-13T18:42:30.627Z,5.03
2022-10-13T18:44:59.838Z,5.07
2022-10-13T18:47:27.317Z,4.76
2022-10-13T18:49:54.565Z,4.94
2022-10-13T18:52:23.371Z,5.00
2022-10-13T18:54:50.933Z,5.09
2022-10-13T18:57:18.883Z,4.97
2022-10-13T18:59:48.002Z,5.15
2022-10-13T19:02:15.840Z,5.15
2022-10-13T19:04:42.871Z,5.08
2022-10-13T19:07:10.108Z,5.13
2022-10-13T19:09:38.301Z,5.23
2022-10-13T19:12:05.592Z,5.17
2022-10-13T19:14:34.183Z,5.33
2022-10-13T19:17:02.384Z,5.26
2022-10-13T19:19:30.096Z,5.17
2022-10-13T19:21:58.004Z,5.28
2022-10-13T19:24:25.693Z,5.19
2022-10-13T19:26:56.175Z,4.95
2022-10-13T19:29:24.735Z,5.09
2022-10-13T19:31:51.937Z,5.02
2022-10-13T19:34:19.681Z,5.00
2022-10-13T19:36:47.416Z,4.88
2022-10-13T19:39:22.754Z,5.05
2022-10-13T19:41:51.657Z,5.07
2022-10-13T19:44:20.970Z,5.08
2022-10-13T19:46:48.451Z,5.12
2022-10-13T19:49:17.940Z,5.14
2022-10-13T19:51:46.408Z,5.14
2022-10-13T19:54:14.548Z,5.10
2022-10-13T19:56:45.148Z,5.14
2022-10-13T19:59:12.198Z,5.13
2022-10-13T20:01:41.129Z,5.11
2022-10-13T20:04:15.622Z,5.09
2022-10-13T20:06:44.703Z,4.96
2022-10-13T20:09:12.196Z,5.09
2022-10-13T20:11:39.321Z,4.97
2022-10-13T20:14:06.538Z,5.03
2022-10-13T20:16:34.174Z,5.10
2022-10-13T20:19:01.370Z,4.91
2022-10-13T20:21:29.656Z,5.10
2022-10-13T20:23:57.655Z,4.92
2022-10-13T20:26:26.283Z,5.01
2022-10-13T20:28:54.546Z,4.88
2022-10-13T20:31:23.392Z,5.10
2022-10-13T20:33:58.449Z,5.09
2022-10-13T20:36:34.731Z,5.17
2022-10-13T20:39:05.526Z,5.16
2022-10-13T20:41:33.626Z,5.15
2022-10-13T20:44:01.992Z,4.90
2022-10-13T20:46:31.627Z,5.11
2022-10-13T20:49:10.285Z,4.88
2022-10-13T20:51:37.906Z,5.05
2022-10-13T20:54:05.195Z,5.07
2022-10-13T20:56:32.460Z,5.08
2022-10-13T20:59:07.748Z,5.05
2022-10-13T21:01:35.771Z,5.06
2022-10-13T21:04:03.415Z,4.94
2022-10-13T21:06:30.814Z,5.04
2022-10-13T21:09:00.856Z,5.03
2022-10-13T21:11:27.972Z,5.03
2022-10-13T21:13:55.055Z,4.86
2022-10-13T21:16:28.241Z,4.96
2022-10-13T21:18:57.877Z,4.81
2022-10-13T21:21:28.135Z,4.93
2022-10-13T21:24:00.620Z,4.99
2022-10-13T21:26:29.962Z,4.69
2022-10-13T21:28:58.328Z,4.85
2022-10-13T21:31:26.140Z,4.86
2022-10-13T21:33:53.828Z,4.60
2022-10-13T21:36:26.608Z,4.88
2022-10-13T21:39:00.271Z,4.63
2022-10-13T21:41:28.430Z,4.88
2022-10-13T21:43:56.374Z,4.65
2022-10-13T21:46:26.052Z,4.77
2022-10-13T21:48:58.756Z,4.88
2022-10-13T21:51:29.939Z,4.81
2022-10-13T21:54:03.263Z,4.75
2022-10-13T21:56:31.917Z,4.76
2022-10-13T21:58:59.947Z,4.67
2022-10-13T22:01:27.725Z,4.82
2022-10-13T22:03:57.173Z,4.90
2022-10-13T22:06:29.050Z,4.70
2022-10-13T22:08:57.968Z,4.86
2022-10-13T22:11:28.189Z,4.91
2022-10-13T22:13:58.767Z,4.85
2022-10-13T22:16:34.188Z,4.82
2022-10-13T22:19:01.684Z,4.93
2022-10-13T22:21:31.452Z,4.95
2022-10-13T22:24:04.433Z,4.79
2022-10-13T22:26:33.918Z,4.81
2022-10-13T22:29:02.763Z,4.80
2022-10-13T22:31:30.792Z,4.74
2022-10-13T22:33:59.334Z,4.68
2022-10-13T22:36:28.266Z,4.79
2022-10-13T22:38:58.440Z,4.81
2022-10-13T22:41:25.844Z,4.71
2022-10-13T22:43:54.661Z,4.84
2022-10-13T22:46:25.339Z,4.80
2022-10-13T22:48:52.848Z,4.91
2022-10-13T22:51:21.947Z,4.95
2022-10-13T22:53:50.018Z,4.97
2022-10-13T22:56:21.001Z,4.85
2022-10-13T22:58:52.724Z,5.01
2022-10-13T23:01:20.699Z,4.90
2022-10-13T23:03:49.954Z,5.03
2022-10-13T23:06:20.321Z,4.96
2022-10-13T23:08:48.423Z,4.83
2022-10-13T23:11:16.123Z,4.95
2022-10-13T23:13:43.518Z,4.92
2022-10-13T23:16:13.759Z,4.90
2022-10-13T23:18:43.316Z,4.91
2022-10-13T23:21:26.570Z,4.85
2022-10-13T23:23:56.030Z,4.85
2022-10-13T23:26:24.176Z,4.86
2022-10-13T23:28:51.663Z,4.88
2022-10-13T23:31:19.048Z,4.87
2022-10-13T23:33:46.472Z,4.80
2022-10-13T23:36:17.143Z,4.86
2022-10-13T23:38:48.714Z,4.87
2022-10-13T23:41:16.721Z,4.93
2022-10-13T23:43:44.155Z,4.91
2022-10-13T23:46:11.711Z,4.88
2022-10-13T23:48:39.967Z,4.86
2022-10-13T23:51:12.722Z,4.86
2022-10-13T23:53:41.818Z,4.85
2022-10-13T23:56:10.388Z,4.70
2022-10-13T23:58:39.276Z,4.82
